createdAt,value
2023-02-02T00:01:32.672Z,4.30
2023-02-02T00:03:59.862Z,5.28
2023-02-02T00:06:28.148Z,4.63
2023-02-02T00:08:57.997Z,4.05
2023-02-02T00:11:25.306Z,3.85
2023-02-02T00:13:52.026Z,4.25
2023-02-02T00:16:22.035Z,4.30
2023-02-02T00:18:49.326Z,4.90
2023-02-02T00:21:15.754Z,4.25
2023-02-02T00:23:42.327Z,5.13
2023-02-02T00:26:09.320Z,4.68
2023-02-02T00:28:35.895Z,4.25
2023-02-02T00:31:02.453Z,4.15
2023-02-02T00:33:28.999Z,4.28
2023-02-02T00:35:55.450Z,4.63
2023-02-02T00:38:22.906Z,3.60
2023-02-02T00:40:49.553Z,5.05
2023-02-02T00:43:15.992Z,5.10
2023-02-02T00:45:42.740Z,4.53
2023-02-02T00:48:10.845Z,4.18
2023-02-02T00:50:37.482Z,5.25
2023-02-02T00:53:04.037Z,4.32
2023-02-02T00:55:30.727Z,4.85
2023-02-02T00:57:57.443Z,4.03
2023-02-02T01:00:25.872Z,3.65
2023-02-02T01:02:53.866Z,3.90
2023-02-02T01:05:20.915Z,3.83
2023-02-02T01:07:47.881Z,4.68
2023-02-02T01:10:16.209Z,5.70
2023-02-02T01:12:43.676Z,3.80
2023-02-02T01:15:11.730Z,5.13
2023-02-02T01:17:38.715Z,5.13
2023-02-02T01:20:07.023Z,4.57
2023-02-02T01:22:34.790Z,4.05
2023-02-02T01:25:01.845Z,5.00
2023-02-02T01:27:28.308Z,5.38
2023-02-02T01:29:54.773Z,4.05
2023-02-02T01:32:21.844Z,5.00
2023-02-02T01:34:48.243Z,4.57
2023-02-02T01:37:14.784Z,4.45
2023-02-02T01:39:41.279Z,4.43
2023-02-02T01:42:19.870Z,5.75
2023-02-02T01:45:20.375Z,3.92
2023-02-02T01:47:51.875Z,4.80
2023-02-02T01:50:20.970Z,4.15
2023-02-02T01:52:50.250Z,3.50
2023-02-02T01:55:21.637Z,4.18
2023-02-02T02:00:27.116Z,4.40
2023-02-02T02:03:03.790Z,4.28
2023-02-02T02:09:29.064Z,3.35
2023-02-02T02:11:55.804Z,4.25
2023-02-02T02:14:41.946Z,4.10
2023-02-02T02:17:20.970Z,4.38
2023-02-02T02:20:36.065Z,5.25
2023-02-02T02:23:49.146Z,4.05
2023-02-02T02:26:36.536Z,4.45
2023-02-02T02:29:25.815Z,4.05
2023-02-02T02:32:01.186Z,4.18
2023-02-02T02:34:42.039Z,4.50
2023-02-02T02:37:23.603Z,4.13
2023-02-02T02:40:04.360Z,4.15
2023-02-02T02:42:35.575Z,3.35
2023-02-02T02:45:03.887Z,4.35
2023-02-02T02:47:32.222Z,4.72
2023-02-02T02:49:58.803Z,5.90
2023-02-02T02:52:25.435Z,4.20
2023-02-02T02:54:55.144Z,4.13
2023-02-02T02:57:46.270Z,4.07
2023-02-02T03:00:33.838Z,3.90
2023-02-02T03:03:28.381Z,3.75
2023-02-02T03:06:20.922Z,4.38
2023-02-02T03:08:59.123Z,3.90
2023-02-02T03:11:25.712Z,3.53
2023-02-02T03:13:52.659Z,4.13
2023-02-02T03:16:19.294Z,4.45
2023-02-02T03:18:45.833Z,3.50
2023-02-02T03:21:12.392Z,3.50
2023-02-02T03:23:39.279Z,4.32
2023-02-02T03:26:06.838Z,3.45
2023-02-02T03:28:34.325Z,3.20
2023-02-02T03:31:02.137Z,2.88
2023-02-02T03:33:29.896Z,3.33
2023-02-02T03:35:56.384Z,3.03
2023-02-02T03:38:22.842Z,2.55
2023-02-02T03:40:51.007Z,4.15
2023-02-02T03:43:24.463Z,2.65
2023-02-02T03:46:04.235Z,3.03
2023-02-02T03:48:31.269Z,2.60
2023-02-02T03:50:58.118Z,2.42
2023-02-02T03:53:24.644Z,3.15
2023-02-02T03:55:51.126Z,2.65
2023-02-02T03:58:17.660Z,2.08
2023-02-02T04:00:44.093Z,2.22
2023-02-02T04:03:10.625Z,2.28
2023-02-02T04:05:37.107Z,1.95
2023-02-02T04:08:03.589Z,2.33
2023-02-02T04:10:30.068Z,2.20
2023-02-02T04:12:56.698Z,2.05
2023-02-02T04:15:23.419Z,2.35
2023-02-02T04:17:50.055Z,2.53
2023-02-02T04:20:16.817Z,2.40
2023-02-02T04:22:43.368Z,2.85
2023-02-02T04:25:09.855Z,3.75
2023-02-02T04:27:36.455Z,2.88
2023-02-02T04:30:03.095Z,2.00
2023-02-02T04:32:29.565Z,3.28
2023-02-02T04:34:56.078Z,2.60
2023-02-02T04:37:22.540Z,2.70
2023-02-02T04:39:49.081Z,2.63
2023-02-02T04:42:15.503Z,2.83
2023-02-02T04:44:43.919Z,2.25
2023-02-02T04:47:10.477Z,2.20
2023-02-02T04:49:36.993Z,2.47
2023-02-02T04:52:03.574Z,2.50
2023-02-02T04:54:30.203Z,2.45
2023-02-02T04:56:56.755Z,3.30
2023-02-02T04:59:23.339Z,2.88
2023-02-02T05:01:50.996Z,2.28
2023-02-02T05:04:17.498Z,3.05
2023-02-02T05:06:43.996Z,2.13
2023-02-02T05:09:11.144Z,2.75
2023-02-02T05:11:39.108Z,1.90
2023-02-02T05:14:05.536Z,3.47
2023-02-02T05:16:32.060Z,3.38
2023-02-02T05:18:59.565Z,2.30
2023-02-02T05:21:26.125Z,2.95
2023-02-02T05:23:52.643Z,3.17
2023-02-02T05:26:25.122Z,2.40
2023-02-02T05:28:52.171Z,2.75
2023-02-02T05:31:19.609Z,2.83
2023-02-02T05:33:46.323Z,2.63
2023-02-02T05:36:12.804Z,2.83
2023-02-02T05:38:39.539Z,3.45
2023-02-02T05:41:06.062Z,3.35
2023-02-02T05:43:33.413Z,2.55
2023-02-02T05:45:59.923Z,2.40
2023-02-02T05:48:27.236Z,2.28
2023-02-02T05:51:01.926Z,3.47
2023-02-02T05:53:30.176Z,3.33
2023-02-02T05:55:56.753Z,3.42
2023-02-02T05:58:23.329Z,1.95
2023-02-02T06:00:49.897Z,3.13
2023-02-02T06:03:16.429Z,3.70
2023-02-02T06:05:42.961Z,2.10
2023-02-02T06:08:09.467Z,2.53
2023-02-02T06:10:39.070Z,2.38
2023-02-02T06:13:05.514Z,3.42
2023-02-02T06:15:33.011Z,3.25
2023-02-02T06:18:00.289Z,2.42
2023-02-02T06:20:27.078Z,2.47
2023-02-02T06:22:53.611Z,2.33
2023-02-02T06:25:20.040Z,2.08
2023-02-02T06:27:46.615Z,2.13
2023-02-02T06:30:13.811Z,2.15
2023-02-02T06:32:40.389Z,2.03
2023-02-02T06:35:08.742Z,2.67
2023-02-02T06:37:35.297Z,3.03
2023-02-02T06:40:01.837Z,2.70
2023-02-02T06:42:28.507Z,2.00
2023-02-02T06:44:54.997Z,1.85
2023-02-02T06:47:21.532Z,3.50
2023-02-02T06:49:48.101Z,2.60
2023-02-02T06:52:14.605Z,3.08
2023-02-02T06:54:41.078Z,2.40
2023-02-02T06:57:09.332Z,2.40
2023-02-02T06:59:35.747Z,3.03
2023-02-02T07:02:02.361Z,2.50
2023-02-02T07:04:28.899Z,2.63
2023-02-02T07:06:55.457Z,2.80
2023-02-02T07:09:21.880Z,2.60
2023-02-02T07:11:48.321Z,2.92
2023-02-02T07:14:14.819Z,3.22
2023-02-02T07:16:41.263Z,2.15
2023-02-02T07:19:07.839Z,2.88
2023-02-02T07:21:36.981Z,2.22
2023-02-02T07:24:04.787Z,2.35
2023-02-02T07:26:31.361Z,2.28
2023-02-02T07:28:57.971Z,3.22
2023-02-02T07:31:26.563Z,2.55
2023-02-02T07:33:54.212Z,2.53
2023-02-02T07:36:23.870Z,2.67
2023-02-02T07:38:57.349Z,3.33
2023-02-02T07:41:24.610Z,2.95
2023-02-02T07:43:51.759Z,3.30
2023-02-02T07:46:19.557Z,3.30
2023-02-02T07:48:46.154Z,3.70
2023-02-02T07:51:15.782Z,3.08
2023-02-02T07:53:47.259Z,3.33
2023-02-02T07:56:22.268Z,3.47
2023-02-02T07:58:52.211Z,4.75
2023-02-02T08:01:20.474Z,3.08
2023-02-02T08:03:47.348Z,3.50
2023-02-02T08:06:21.969Z,3.28
2023-02-02T08:08:49.341Z,2.60
2023-02-02T08:11:18.482Z,3.22
2023-02-02T08:13:49.293Z,3.30
2023-02-02T08:16:16.195Z,3.20
2023-02-02T08:18:43.927Z,3.58
2023-02-02T08:21:11.356Z,3.55
2023-02-02T08:23:39.897Z,3.08
2023-02-02T08:26:08.986Z,4.05
2023-02-02T08:28:36.502Z,5.07
2023-02-02T08:31:06.649Z,5.57
2023-02-02T08:33:33.192Z,3.80
2023-02-02T08:35:59.935Z,4.88
2023-02-02T08:38:26.430Z,3.92
2023-02-02T08:40:52.926Z,3.22
2023-02-02T08:43:19.362Z,4.70
2023-02-02T08:46:03.711Z,3.13
2023-02-02T08:48:31.511Z,2.70
2023-02-02T08:51:00.017Z,3.63
2023-02-02T08:53:27.673Z,2.88
2023-02-02T08:56:06.736Z,2.95
2023-02-02T08:58:34.356Z,4.10
2023-02-02T09:01:09.035Z,2.83
2023-02-02T09:03:38.892Z,3.85
2023-02-02T09:06:31.032Z,3.28
2023-02-02T09:08:57.514Z,5.32
2023-02-02T09:11:24.251Z,3.92
2023-02-02T09:13:55.295Z,3.65
2023-02-02T09:16:22.837Z,3.15
2023-02-02T09:18:49.572Z,2.90
2023-02-02T09:21:17.543Z,2.80
2023-02-02T09:23:46.173Z,3.20
2023-02-02T09:26:27.691Z,2.38
2023-02-02T09:29:02.436Z,2.90
2023-02-02T09:31:30.935Z,2.63
2023-02-02T09:34:01.705Z,3.85
2023-02-02T09:36:28.227Z,2.93
2023-02-02T09:38:54.862Z,3.33
2023-02-02T09:41:39.498Z,3.15
2023-02-02T09:44:30.204Z,3.17
2023-02-02T09:47:08.911Z,2.70
2023-02-02T09:49:57.035Z,3.00
2023-02-02T09:52:41.427Z,2.88
2023-02-02T09:55:23.340Z,2.63
2023-02-02T09:57:55.035Z,3.55
2023-02-02T10:00:37.992Z,3.10
2023-02-02T10:03:24.617Z,2.50
2023-02-02T10:06:07.542Z,2.70
2023-02-02T10:08:44.193Z,3.72
2023-02-02T10:12:01.962Z,2.35
2023-02-02T10:14:36.686Z,2.63
2023-02-02T10:17:38.852Z,3.15
2023-02-02T10:20:23.923Z,2.42
2023-02-02T10:22:51.086Z,2.50
2023-02-02T10:25:17.954Z,3.42
2023-02-02T10:27:58.367Z,2.00
2023-02-02T10:30:36.696Z,2.15
2023-02-02T10:33:12.596Z,2.33
2023-02-02T10:35:47.295Z,2.63
2023-02-02T10:38:25.589Z,2.58
2023-02-02T10:41:05.206Z,2.65
2023-02-02T10:43:57.432Z,2.47
2023-02-02T10:47:05.501Z,2.17
2023-02-02T10:49:37.440Z,2.75
2023-02-02T10:52:10.959Z,3.63
2023-02-02T10:54:56.421Z,2.20
2023-02-02T10:58:01.481Z,2.30
2023-02-02T11:00:58.250Z,2.70
2023-02-02T11:03:30.276Z,2.08
2023-02-02T11:06:20.901Z,2.03
2023-02-02T11:08:52.740Z,2.00
2023-02-02T11:11:26.281Z,2.17
2023-02-02T11:13:58.236Z,2.25
2023-02-02T11:16:38.851Z,1.90
2023-02-02T11:19:29.895Z,1.77
2023-02-02T11:21:58.987Z,1.98
2023-02-02T11:24:41.319Z,2.13
2023-02-02T11:27:21.181Z,2.42
2023-02-02T11:29:56.787Z,2.85
2023-02-02T11:32:28.165Z,2.45
2023-02-02T11:35:06.557Z,1.85
2023-02-02T11:37:38.247Z,2.92
2023-02-02T11:42:52.497Z,2.35
2023-02-02T11:45:27.349Z,2.08
2023-02-02T11:47:53.886Z,2.50
2023-02-02T11:50:27.524Z,1.88
2023-02-02T11:52:54.540Z,2.13
2023-02-02T11:55:27.933Z,1.50
2023-02-02T11:58:27.315Z,2.10
2023-02-02T12:01:01.060Z,2.03
2023-02-02T12:03:32.355Z,1.90
2023-02-02T12:05:59.632Z,2.15
2023-02-02T12:08:26.287Z,2.25
2023-02-02T12:11:03.556Z,2.08
2023-02-02T12:14:07.846Z,1.85
2023-02-02T12:16:53.578Z,1.88
2023-02-02T12:19:26.088Z,2.45
2023-02-02T12:22:03.094Z,1.98
2023-02-02T12:24:38.013Z,1.95
2023-02-02T12:27:18.822Z,2.33
2023-02-02T12:30:03.575Z,1.90
2023-02-02T12:32:42.085Z,1.55
2023-02-02T12:35:21.406Z,1.77
2023-02-02T12:38:05.566Z,1.40
2023-02-02T12:40:58.303Z,1.85
2023-02-02T12:43:47.219Z,1.75
2023-02-02T12:46:41.325Z,1.85
2023-02-02T12:49:35.261Z,2.03
2023-02-02T12:52:20.406Z,1.92
2023-02-02T12:54:59.061Z,2.30
2023-02-02T12:58:02.303Z,2.05
2023-02-02T13:01:17.195Z,1.83
2023-02-02T13:03:46.300Z,1.35
2023-02-02T13:06:21.625Z,2.13
2023-02-02T13:08:56.219Z,2.72
2023-02-02T13:11:36.151Z,2.17
2023-02-02T13:14:23.093Z,2.90
2023-02-02T13:16:54.304Z,2.17
2023-02-02T13:19:35.833Z,2.00
2023-02-02T13:22:06.287Z,2.50
2023-02-02T13:24:37.556Z,2.42
2023-02-02T13:27:07.439Z,2.80
2023-02-02T13:29:58.496Z,5.05
2023-02-02T13:32:37.509Z,3.03
2023-02-02T13:35:27.389Z,2.58
2023-02-02T13:38:16.364Z,2.15
2023-02-02T13:40:44.065Z,3.08
2023-02-02T13:43:29.222Z,2.08
2023-02-02T13:46:18.644Z,2.35
2023-02-02T13:48:47.827Z,3.53
2023-02-02T13:51:49.818Z,6.40
2023-02-02T13:57:16.264Z,1.33
2023-02-02T13:59:57.302Z,2.20
2023-02-02T14:02:35.698Z,1.80
2023-02-02T14:05:05.864Z,1.50
2023-02-02T14:07:42.001Z,1.60
2023-02-02T14:10:21.413Z,1.55
2023-02-02T14:12:48.258Z,1.73
2023-02-02T14:15:15.017Z,1.73
2023-02-02T14:17:41.959Z,1.52
2023-02-02T14:20:40.249Z,1.75
2023-02-02T14:23:45.219Z,1.45
2023-02-02T14:26:12.569Z,2.05
2023-02-02T14:28:46.025Z,1.92
2023-02-02T14:31:52.262Z,1.30
2023-02-02T14:34:27.793Z,2.15
2023-02-02T14:37:30.046Z,2.47
2023-02-02T14:40:12.466Z,1.90
2023-02-02T14:43:21.737Z,1.50
2023-02-02T14:46:10.446Z,1.50
2023-02-02T14:48:39.155Z,1.52
2023-02-02T14:51:14.289Z,1.40
2023-02-02T14:53:49.256Z,1.23
2023-02-02T14:56:17.490Z,1.30
2023-02-02T14:58:53.417Z,1.42
2023-02-02T15:01:23.719Z,1.58
2023-02-02T15:03:57.523Z,2.25
2023-02-02T15:06:34.617Z,1.30
2023-02-02T15:09:20.038Z,1.30
2023-02-02T15:12:00.790Z,0.95
2023-02-02T15:14:55.970Z,1.95
2023-02-02T15:17:22.636Z,1.85
2023-02-02T15:19:58.875Z,1.38
2023-02-02T15:22:48.163Z,1.85
2023-02-02T15:25:24.357Z,1.27
2023-02-02T15:28:02.981Z,1.15
2023-02-02T15:30:33.641Z,1.80
2023-02-02T15:33:06.459Z,1.17
2023-02-02T15:35:37.196Z,1.40
2023-02-02T15:40:37.465Z,1.55
2023-02-02T15:43:09.139Z,1.63
2023-02-02T15:48:20.097Z,1.48
2023-02-02T15:50:48.420Z,0.95
2023-02-02T15:53:19.614Z,1.30
2023-02-02T15:55:46.276Z,1.02
2023-02-02T15:58:32.261Z,0.77
2023-02-02T16:01:14.308Z,1.23
2023-02-02T16:03:54.270Z,1.15
2023-02-02T16:06:21.549Z,1.30
2023-02-02T16:08:49.393Z,1.40
2023-02-02T16:11:23.829Z,2.25
2023-02-02T16:13:58.241Z,1.83
2023-02-02T16:16:30.415Z,1.45
2023-02-02T16:19:24.475Z,1.33
2023-02-02T16:21:53.987Z,1.38
2023-02-02T16:24:32.638Z,0.93
2023-02-02T16:27:01.091Z,1.33
2023-02-02T16:29:28.907Z,1.75
2023-02-02T16:31:56.528Z,1.77
2023-02-02T16:34:41.316Z,1.90
2023-02-02T16:37:13.435Z,1.42
2023-02-02T16:39:40.141Z,2.00
2023-02-02T16:42:31.759Z,1.50
2023-02-02T16:45:00.385Z,2.10
2023-02-02T16:47:26.841Z,1.50
2023-02-02T16:49:55.824Z,1.90
2023-02-02T16:52:22.558Z,2.38
2023-02-02T16:54:55.007Z,1.85
2023-02-02T16:57:33.946Z,2.28
2023-02-02T17:00:06.196Z,2.42
2023-02-02T17:02:38.731Z,2.45
2023-02-02T17:05:07.775Z,2.40
2023-02-02T17:07:37.574Z,2.60
2023-02-02T17:10:18.168Z,2.00
2023-02-02T17:12:45.883Z,2.50
2023-02-02T17:15:18.357Z,2.20
2023-02-02T17:17:47.982Z,2.20
2023-02-02T17:20:15.899Z,2.35
2023-02-02T17:22:45.445Z,3.90
2023-02-02T17:25:35.792Z,2.55
2023-02-02T17:28:03.937Z,2.25
2023-02-02T17:30:30.730Z,2.35
2023-02-02T17:32:57.482Z,3.08
2023-02-02T17:35:27.078Z,3.05
2023-02-02T17:37:54.514Z,1.75
2023-02-02T17:40:23.578Z,2.20
2023-02-02T17:42:52.215Z,3.20
2023-02-02T17:45:24.937Z,2.60
2023-02-02T17:47:51.701Z,2.90
2023-02-02T17:50:18.798Z,2.63
2023-02-02T17:52:46.180Z,3.55
2023-02-02T17:55:15.667Z,2.08
2023-02-02T17:57:42.102Z,2.80
2023-02-02T18:00:10.029Z,3.30
2023-02-02T18:02:36.594Z,3.13
2023-02-02T18:05:04.674Z,3.00
2023-02-02T18:07:31.768Z,3.25
2023-02-02T18:09:58.333Z,4.10
2023-02-02T18:12:24.813Z,3.65
2023-02-02T18:14:51.291Z,3.72
2023-02-02T18:17:17.693Z,3.42
2023-02-02T18:19:47.498Z,4.28
2023-02-02T18:22:14.033Z,3.88
2023-02-02T18:24:41.141Z,4.32
2023-02-02T18:27:08.373Z,3.42
2023-02-02T18:29:35.383Z,3.38
2023-02-02T18:32:02.579Z,3.10
2023-02-02T18:34:33.579Z,2.65
2023-02-02T18:37:00.382Z,3.00
2023-02-02T18:39:27.111Z,2.70
2023-02-02T18:41:53.615Z,3.83
2023-02-02T18:44:20.151Z,3.00
2023-02-02T18:46:46.660Z,3.92
2023-02-02T18:49:13.186Z,3.25
2023-02-02T18:51:40.113Z,3.90
2023-02-02T18:54:06.624Z,3.65
2023-02-02T18:56:33.115Z,3.55
2023-02-02T18:58:59.648Z,3.00
2023-02-02T19:01:26.593Z,3.05
2023-02-02T19:03:57.118Z,3.67
2023-02-02T19:06:43.557Z,2.40
2023-02-02T19:09:10.323Z,3.50
2023-02-02T19:11:45.416Z,3.50
2023-02-02T19:14:19.526Z,3.20
2023-02-02T19:16:48.747Z,4.05
2023-02-02T19:19:29.096Z,3.63
2023-02-02T19:22:01.129Z,4.20
2023-02-02T19:24:37.234Z,4.47
2023-02-02T19:27:14.664Z,4.30
2023-02-02T19:29:41.186Z,4.50
2023-02-02T19:32:23.030Z,4.03
2023-02-02T19:34:52.127Z,4.70
2023-02-02T19:37:21.454Z,4.40
2023-02-02T19:39:47.969Z,5.93
2023-02-02T19:42:14.424Z,6.05
2023-02-02T19:44:42.001Z,6.90
2023-02-02T19:47:21.533Z,6.30
2023-02-02T19:49:47.997Z,5.70
2023-02-02T19:52:23.107Z,6.18
2023-02-02T19:54:50.188Z,6.30
2023-02-02T19:57:22.605Z,6.25
2023-02-02T19:59:51.318Z,5.93
2023-02-02T20:02:31.474Z,5.35
2023-02-02T20:05:18.204Z,4.65
2023-02-02T20:07:45.222Z,4.93
2023-02-02T20:10:25.267Z,4.80
2023-02-02T20:12:52.934Z,4.50
2023-02-02T20:15:39.472Z,5.35
2023-02-02T20:18:14.024Z,5.40
2023-02-02T20:20:43.315Z,4.43
2023-02-02T20:23:27.611Z,5.25
2023-02-02T20:25:54.297Z,5.15
2023-02-02T20:28:41.540Z,6.32
2023-02-02T20:31:10.365Z,6.45
2023-02-02T20:33:37.165Z,7.00
2023-02-02T20:36:15.663Z,6.30
2023-02-02T20:38:42.193Z,5.93
2023-02-02T20:41:08.630Z,6.30
2023-02-02T20:43:35.793Z,6.43
2023-02-02T20:46:02.642Z,5.93
2023-02-02T20:48:29.269Z,6.40
2023-02-02T20:50:55.728Z,5.93
2023-02-02T20:53:22.341Z,5.82
2023-02-02T20:55:48.757Z,5.82
2023-02-02T20:58:15.246Z,6.10
2023-02-02T21:00:42.069Z,5.97
2023-02-02T21:03:08.652Z,5.47
2023-02-02T21:05:35.172Z,5.75
2023-02-02T21:08:01.956Z,5.25
2023-02-02T21:10:28.795Z,5.47
2023-02-02T21:12:55.504Z,5.38
2023-02-02T21:15:22.061Z,5.88
2023-02-02T21:17:48.506Z,6.60
2023-02-02T21:20:15.184Z,5.40
2023-02-02T21:22:41.982Z,6.22
2023-02-02T21:25:09.146Z,5.88
2023-02-02T21:27:35.951Z,6.07
2023-02-02T21:30:02.452Z,5.00
2023-02-02T21:32:29.059Z,5.47
2023-02-02T21:34:55.550Z,5.95
2023-02-02T21:37:21.999Z,5.95
2023-02-02T21:39:51.036Z,5.63
2023-02-02T21:42:21.091Z,5.10
2023-02-02T21:44:57.991Z,5.45
2023-02-02T21:47:51.740Z,5.72
2023-02-02T21:50:22.728Z,5.30
2023-02-02T21:52:49.279Z,5.18
2023-02-02T21:55:37.265Z,5.75
2023-02-02T21:58:19.141Z,5.78
2023-02-02T22:00:46.730Z,4.93
2023-02-02T22:03:40.326Z,5.47
2023-02-02T22:06:18.744Z,5.82
2023-02-02T22:08:45.331Z,5.63
2023-02-02T22:11:23.866Z,6.00
2023-02-02T22:13:52.560Z,5.63
2023-02-02T22:16:20.866Z,6.05
2023-02-02T22:18:47.626Z,4.72
2023-02-02T22:21:17.996Z,5.38
2023-02-02T22:23:46.070Z,5.88
2023-02-02T22:26:33.544Z,4.40
2023-02-02T22:29:01.990Z,4.63
2023-02-02T22:31:28.464Z,6.72
2023-02-02T22:33:54.952Z,5.07
2023-02-02T22:36:21.573Z,5.05
2023-02-02T22:38:48.036Z,3.53
2023-02-02T22:41:14.578Z,4.68
2023-02-02T22:43:41.151Z,4.65
2023-02-02T22:46:07.678Z,4.53
2023-02-02T22:48:34.134Z,4.78
2023-02-02T22:51:00.637Z,5.55
2023-02-02T22:53:27.188Z,4.72
2023-02-02T22:55:56.635Z,3.97
2023-02-02T22:58:24.594Z,3.88
2023-02-02T23:00:51.515Z,3.30
2023-02-02T23:03:18.143Z,3.92
2023-02-02T23:05:44.873Z,3.53
2023-02-02T23:08:11.322Z,4.15
2023-02-02T23:10:37.973Z,3.70
2023-02-02T23:13:05.936Z,2.95
2023-02-02T23:15:33.070Z,3.60
2023-02-02T23:17:59.716Z,4.10
2023-02-02T23:20:26.844Z,3.22
2023-02-02T23:22:53.490Z,3.88
2023-02-02T23:25:20.066Z,4.13
2023-02-02T23:27:46.625Z,3.72
2023-02-02T23:30:14.275Z,4.30
2023-02-02T23:32:41.393Z,4.03
2023-02-02T23:35:10.611Z,4.20
2023-02-02T23:37:37.621Z,3.55
2023-02-02T23:40:04.446Z,4.18
2023-02-02T23:42:30.856Z,3.65
2023-02-02T23:44:57.323Z,4.00
2023-02-02T23:47:23.889Z,3.92
2023-02-02T23:49:50.389Z,4.10
2023-02-02T23:52:17.149Z,4.43
2023-02-02T23:54:43.780Z,5.15
2023-02-02T23:57:10.534Z,3.95
2023-02-02T23:59:37.009Z,3.67
